createdAt,value
2017-11-20T00:01:01.031Z,40.31
2017-11-20T00:03:34.234Z,40.37
2017-11-20T00:06:05.296Z,40.38
2017-11-20T00:08:36.930Z,40.48
2017-11-20T00:11:08.021Z,40.58
2017-11-20T00:13:39.597Z,40.56
2017-11-20T00:16:13.602Z,40.57
2017-11-20T00:18:45.102Z,40.57
2017-11-20T00:21:24.032Z,40.61
2017-11-20T00:23:55.190Z,40.67
2017-11-20T00:26:26.654Z,40.69
2017-11-20T00:28:59.881Z,40.66
2017-11-20T00:31:31.525Z,40.72
2017-11-20T00:34:04.195Z,40.77
2017-11-20T00:36:35.470Z,40.76
2017-11-20T00:39:07.465Z,40.68
2017-11-20T00:41:42.911Z,40.74
2017-11-20T00:44:18.978Z,40.79
2017-11-20T00:46:50.702Z,40.80
2017-11-20T00:49:22.258Z,40.74
2017-11-20T00:51:53.956Z,40.87
2017-11-20T00:54:25.236Z,40.86
2017-11-20T00:56:56.648Z,40.89
2017-11-20T00:59:27.749Z,40.89
2017-11-20T01:01:58.869Z,40.80
2017-11-20T01:04:30.615Z,40.76
2017-11-20T01:07:02.006Z,40.74
2017-11-20T01:09:33.356Z,40.77
2017-11-20T01:12:04.650Z,40.75
2017-11-20T01:14:36.104Z,40.62
2017-11-20T01:17:08.654Z,40.57
2017-11-20T01:19:40.456Z,40.56
2017-11-20T01:22:15.422Z,40.49
2017-11-20T01:24:47.829Z,40.47
2017-11-20T01:27:18.971Z,40.49
2017-11-20T01:29:50.048Z,40.41
2017-11-20T01:32:21.439Z,40.47
2017-11-20T01:34:52.487Z,40.36
2017-11-20T01:37:23.467Z,40.48
2017-11-20T01:39:54.896Z,40.46
2017-11-20T01:42:26.496Z,40.51
2017-11-20T01:44:57.669Z,40.53
2017-11-20T01:47:29.517Z,40.54
2017-11-20T01:50:00.621Z,40.44
2017-11-20T01:52:32.641Z,40.55
2017-11-20T01:55:03.984Z,40.44
2017-11-20T01:57:35.124Z,40.50
2017-11-20T02:00:06.645Z,40.42
2017-11-20T02:02:46.593Z,40.56
2017-11-20T02:05:19.493Z,40.60
2017-11-20T02:07:50.977Z,40.68
2017-11-20T02:10:22.882Z,40.75
2017-11-20T02:12:54.197Z,40.74
2017-11-20T02:15:25.998Z,40.79
2017-11-20T02:20:34.469Z,40.90
2017-11-20T02:23:06.537Z,40.92
2017-11-20T02:25:38.024Z,40.91
2017-11-20T02:28:09.794Z,40.88
2017-11-20T02:30:41.399Z,40.91
2017-11-20T02:33:14.613Z,40.90
2017-11-20T02:35:46.556Z,40.92
2017-11-20T02:38:18.278Z,40.86
2017-11-20T02:40:49.987Z,40.91
2017-11-20T02:43:21.413Z,40.85
2017-11-20T02:45:54.351Z,40.82
2017-11-20T02:48:25.512Z,40.82
2017-11-20T02:50:56.673Z,40.83
2017-11-20T02:53:29.175Z,40.78
2017-11-20T02:56:02.198Z,40.76
2017-11-20T02:58:33.386Z,40.67
2017-11-20T03:01:04.479Z,40.70
2017-11-20T03:03:35.831Z,40.67
2017-11-20T03:06:07.045Z,40.71
2017-11-20T03:08:38.056Z,40.67
2017-11-20T03:11:18.491Z,40.71
2017-11-20T03:13:49.730Z,40.75
2017-11-20T03:16:20.912Z,40.77
2017-11-20T03:18:51.958Z,40.77
2017-11-20T03:21:23.237Z,40.71
2017-11-20T03:23:54.244Z,40.75
2017-11-20T03:26:25.517Z,40.77
2017-11-20T03:28:56.956Z,40.70
2017-11-20T03:31:28.390Z,40.74
2017-11-20T03:33:59.702Z,40.80
2017-11-20T03:36:30.785Z,40.77
2017-11-20T03:39:01.832Z,40.73
2017-11-20T03:41:33.884Z,40.83
2017-11-20T03:44:05.835Z,40.88
2017-11-20T03:46:37.153Z,40.89
2017-11-20T03:49:09.049Z,40.81
2017-11-20T03:51:40.603Z,40.78
2017-11-20T03:54:13.923Z,40.75
2017-11-20T03:56:46.280Z,40.70
2017-11-20T03:59:17.697Z,40.74
2017-11-20T04:01:48.803Z,40.80
2017-11-20T04:04:20.177Z,40.79
2017-11-20T04:06:51.178Z,40.89
2017-11-20T04:09:22.230Z,40.89
2017-11-20T04:11:53.479Z,40.89
2017-11-20T04:14:24.892Z,40.86
2017-11-20T04:16:56.335Z,40.83
2017-11-20T04:19:27.299Z,40.81
2017-11-20T04:21:59.049Z,40.84
2017-11-20T04:24:30.432Z,40.82
2017-11-20T04:27:01.308Z,40.77
2017-11-20T04:29:32.349Z,40.71
2017-11-20T04:32:03.474Z,40.70
2017-11-20T04:34:34.559Z,40.55
2017-11-20T04:37:08.400Z,40.50
2017-11-20T04:39:40.301Z,40.59
2017-11-20T04:42:13.553Z,40.64
2017-11-20T04:44:45.218Z,40.70
2017-11-20T04:47:19.923Z,40.65
2017-11-20T04:49:50.950Z,40.58
2017-11-20T04:52:23.522Z,40.62
2017-11-20T04:54:54.475Z,40.56
2017-11-20T04:57:25.620Z,40.63
2017-11-20T04:59:57.052Z,40.57
2017-11-20T05:02:28.168Z,40.46
2017-11-20T05:04:59.167Z,40.52
2017-11-20T05:07:30.913Z,40.56
2017-11-20T05:10:01.935Z,40.58
2017-11-20T05:12:33.150Z,40.58
2017-11-20T05:15:04.710Z,40.61
2017-11-20T05:17:35.741Z,40.60
2017-11-20T05:20:08.604Z,40.58
2017-11-20T05:22:39.677Z,40.59
2017-11-20T05:25:12.324Z,40.71
2017-11-20T05:27:43.946Z,40.74
2017-11-20T05:30:22.432Z,40.76
2017-11-20T05:32:53.408Z,40.82
2017-11-20T05:35:27.813Z,40.83
2017-11-20T05:37:59.023Z,40.77
2017-11-20T05:40:32.047Z,40.85
2017-11-20T05:43:03.039Z,40.86
2017-11-20T05:45:34.142Z,40.86
2017-11-20T05:48:05.340Z,40.88
2017-11-20T05:50:37.140Z,40.86
2017-11-20T05:53:08.995Z,40.89
2017-11-20T05:55:40.528Z,40.86
2017-11-20T05:58:14.377Z,40.88
2017-11-20T06:00:46.009Z,40.87
2017-11-20T06:03:18.711Z,40.83
2017-11-20T06:05:49.963Z,40.71
2017-11-20T06:08:21.446Z,40.68
2017-11-20T06:10:54.401Z,40.51
2017-11-20T06:13:27.765Z,40.51
2017-11-20T06:15:59.231Z,40.57
2017-11-20T06:18:30.625Z,40.51
2017-11-20T06:21:01.686Z,40.37
2017-11-20T06:23:35.001Z,40.27
2017-11-20T06:26:08.007Z,40.32
2017-11-20T06:28:48.143Z,40.31
2017-11-20T06:31:20.504Z,40.36
2017-11-20T06:33:51.482Z,40.35
2017-11-20T06:36:23.452Z,40.30
2017-11-20T06:38:54.744Z,40.26
2017-11-20T06:41:27.253Z,40.33
2017-11-20T06:43:59.878Z,40.37
2017-11-20T06:46:31.759Z,40.41
2017-11-20T06:49:02.925Z,40.42
2017-11-20T06:51:34.160Z,40.44
2017-11-20T06:54:06.351Z,40.38
2017-11-20T06:56:37.562Z,40.42
2017-11-20T06:59:13.436Z,40.45
2017-11-20T07:01:44.987Z,40.50
2017-11-20T07:04:20.257Z,40.43
2017-11-20T07:06:52.225Z,40.46
2017-11-20T07:09:26.524Z,40.44
2017-11-20T07:11:58.666Z,40.43
2017-11-20T07:14:31.442Z,40.43
2017-11-20T07:17:02.613Z,40.45
2017-11-20T07:19:34.090Z,40.43
2017-11-20T07:22:07.021Z,40.44
2017-11-20T07:24:38.359Z,40.48
2017-11-20T07:27:24.894Z,40.47
2017-11-20T07:31:08.741Z,40.45
2017-11-20T07:33:50.562Z,40.37
2017-11-20T07:42:53.526Z,40.27
2017-11-20T07:45:26.488Z,40.03
2017-11-20T07:47:58.638Z,39.89
2017-11-20T07:50:29.936Z,39.79
2017-11-20T07:53:01.334Z,39.69
2017-11-20T07:55:32.611Z,39.59
2017-11-20T07:58:05.100Z,39.48
2017-11-20T08:00:37.487Z,39.37
2017-11-20T08:03:08.558Z,39.41
2017-11-20T08:05:39.850Z,39.29
2017-11-20T08:08:12.265Z,39.28
2017-11-20T08:10:43.419Z,39.27
2017-11-20T08:13:15.880Z,39.19
2017-11-20T08:15:50.678Z,39.30
2017-11-20T08:18:21.906Z,39.20
2017-11-20T08:20:53.519Z,39.19
2017-11-20T08:23:25.780Z,39.10
2017-11-20T08:25:58.136Z,39.16
2017-11-20T08:28:29.504Z,39.26
2017-11-20T08:31:01.969Z,39.28
2017-11-20T08:33:34.054Z,39.26
2017-11-20T08:36:06.025Z,39.23
2017-11-20T08:38:38.579Z,39.31
2017-11-20T08:41:14.951Z,39.26
2017-11-20T08:43:50.387Z,39.25
2017-11-20T08:46:26.804Z,39.28
2017-11-20T08:48:58.606Z,39.38
2017-11-20T08:51:35.471Z,39.29
2017-11-20T08:54:08.323Z,39.23
2017-11-20T08:56:41.212Z,39.23
2017-11-20T08:59:17.459Z,39.25
2017-11-20T09:01:49.190Z,39.26
2017-11-20T09:04:20.359Z,39.28
2017-11-20T09:06:53.387Z,39.23
2017-11-20T09:09:25.786Z,39.31
2017-11-20T09:11:57.034Z,39.36
2017-11-20T09:14:29.282Z,39.35
2017-11-20T09:17:01.237Z,39.39
2017-11-20T09:19:40.388Z,39.40
2017-11-20T09:22:15.220Z,39.38
2017-11-20T09:24:47.229Z,39.39
2017-11-20T09:27:20.613Z,39.37
2017-11-20T09:29:53.081Z,39.32
2017-11-20T09:32:26.025Z,39.25
2017-11-20T09:34:59.896Z,39.18
2017-11-20T09:37:31.232Z,39.06
2017-11-20T09:40:03.026Z,39.00
2017-11-20T09:42:35.029Z,38.89
2017-11-20T09:45:07.978Z,38.81
2017-11-20T09:47:39.548Z,38.68
2017-11-20T09:50:16.208Z,38.68
2017-11-20T09:52:50.295Z,38.65
2017-11-20T09:55:24.001Z,38.60
2017-11-20T09:57:57.915Z,38.70
2017-11-20T10:00:35.040Z,38.74
2017-11-20T10:03:07.153Z,38.74
2017-11-20T10:05:42.918Z,38.74
2017-11-20T10:08:19.125Z,38.82
2017-11-20T10:10:51.778Z,38.86
2017-11-20T10:13:26.034Z,38.88
2017-11-20T10:15:58.160Z,38.91
2017-11-20T10:18:33.048Z,38.93
2017-11-20T10:21:05.343Z,38.93
2017-11-20T10:23:37.218Z,38.85
2017-11-20T10:28:51.031Z,38.90
2017-11-20T10:31:23.891Z,38.89
2017-11-20T10:33:57.804Z,38.82
2017-11-20T10:36:31.495Z,38.92
2017-11-20T10:39:04.013Z,38.77
2017-11-20T10:41:37.855Z,38.74
2017-11-20T10:44:13.637Z,38.91
2017-11-20T10:46:45.763Z,38.94
2017-11-20T10:49:18.401Z,39.00
2017-11-20T10:51:49.796Z,38.95
2017-11-20T10:54:20.934Z,39.07
2017-11-20T10:56:53.558Z,39.16
2017-11-20T10:59:24.785Z,39.20
2017-11-20T11:01:55.986Z,39.08
2017-11-20T11:04:27.761Z,39.23
2017-11-20T11:06:59.480Z,39.24
2017-11-20T11:10:54.289Z,39.27
2017-11-20T11:13:25.613Z,39.35
2017-11-20T11:15:57.721Z,39.33
2017-11-20T11:18:29.831Z,39.27
2017-11-20T11:21:01.970Z,39.06
2017-11-20T11:23:33.327Z,39.07
2017-11-20T11:26:04.804Z,38.95
2017-11-20T11:28:36.223Z,38.89
2017-11-20T11:31:07.420Z,38.72
2017-11-20T11:33:39.047Z,38.70
2017-11-20T11:36:16.468Z,38.63
2017-11-20T11:38:45.458Z,38.55
2017-11-20T11:41:19.868Z,38.43
2017-11-20T11:43:51.334Z,38.50
2017-11-20T11:46:23.245Z,38.56
2017-11-20T11:48:54.859Z,38.65
2017-11-20T11:51:28.122Z,38.73
2017-11-20T11:54:00.058Z,38.75
2017-11-20T11:56:33.517Z,38.74
2017-11-20T11:59:06.058Z,38.87
2017-11-20T12:01:41.885Z,38.95
2017-11-20T12:04:19.115Z,39.05
2017-11-20T12:06:51.427Z,39.11
2017-11-20T12:09:23.258Z,39.19
2017-11-20T12:11:54.952Z,39.28
2017-11-20T12:14:28.154Z,39.36
2017-11-20T12:17:03.416Z,39.45
2017-11-20T12:19:35.818Z,39.45
2017-11-20T12:22:07.936Z,39.50
2017-11-20T12:24:39.691Z,39.50
2017-11-20T12:27:14.503Z,39.51
2017-11-20T12:29:46.734Z,39.56
2017-11-20T12:32:20.548Z,39.55
2017-11-20T12:34:53.112Z,39.48
2017-11-20T12:37:26.641Z,39.48
2017-11-20T12:39:58.197Z,39.57
2017-11-20T12:42:29.884Z,39.58
2017-11-20T12:45:05.483Z,39.61
2017-11-20T12:47:37.370Z,39.61
2017-11-20T12:50:10.038Z,39.62
2017-11-20T12:52:46.805Z,39.59
2017-11-20T12:55:19.452Z,39.59
2017-11-20T12:57:52.078Z,39.58
2017-11-20T13:00:24.265Z,39.67
2017-11-20T13:02:57.170Z,39.74
2017-11-20T13:05:29.001Z,39.74
2017-11-20T13:08:02.549Z,39.86
2017-11-20T13:10:34.322Z,39.95
2017-11-20T13:13:06.192Z,40.03
2017-11-20T13:15:41.036Z,40.08
2017-11-20T13:18:18.214Z,40.14
2017-11-20T13:20:50.303Z,40.13
2017-11-20T13:23:24.806Z,40.14
2017-11-20T13:25:58.887Z,40.12
2017-11-20T13:28:33.863Z,40.13
2017-11-20T13:31:07.212Z,40.12
2017-11-20T13:33:40.552Z,40.11
2017-11-20T13:36:15.835Z,40.10
2017-11-20T13:38:49.141Z,40.08
2017-11-20T13:41:21.136Z,40.00
2017-11-20T13:43:53.431Z,40.03
2017-11-20T13:46:25.039Z,40.09
2017-11-20T13:48:56.946Z,40.13
2017-11-20T13:51:29.360Z,40.16
2017-11-20T13:54:01.282Z,40.13
2017-11-20T13:56:33.100Z,40.17
2017-11-20T13:59:05.082Z,40.25
2017-11-20T14:01:36.830Z,40.24
2017-11-20T14:04:08.410Z,40.29
2017-11-20T14:06:40.031Z,40.35
2017-11-20T14:09:13.618Z,40.43
2017-11-20T14:11:46.648Z,40.50
2017-11-20T14:14:18.813Z,40.53
2017-11-20T14:16:50.943Z,40.58
2017-11-20T14:19:23.491Z,40.67
2017-11-20T14:21:59.665Z,40.72
2017-11-20T14:24:32.175Z,40.77
2017-11-20T14:27:04.508Z,40.82
2017-11-20T14:29:35.785Z,40.80
2017-11-20T14:32:07.886Z,40.90
2017-11-20T14:34:39.921Z,40.97
2017-11-20T14:37:12.837Z,40.96
2017-11-20T14:39:44.404Z,40.99
2017-11-20T14:42:23.935Z,41.04
2017-11-20T14:45:01.443Z,41.08
2017-11-20T14:47:35.658Z,41.08
2017-11-20T14:50:09.931Z,41.10
2017-11-20T14:52:45.078Z,41.10
2017-11-20T14:55:18.875Z,41.15
2017-11-20T14:57:50.705Z,41.23
2017-11-20T15:00:25.411Z,41.26
2017-11-20T15:02:57.159Z,41.31
2017-11-20T15:05:29.303Z,41.37
2017-11-20T15:08:00.667Z,41.42
2017-11-20T15:10:32.555Z,41.41
2017-11-20T15:13:04.854Z,41.43
2017-11-20T15:15:36.731Z,41.44
2017-11-20T15:18:08.880Z,41.36
2017-11-20T15:20:40.679Z,41.29
2017-11-20T15:23:14.881Z,41.22
2017-11-20T15:25:47.137Z,41.11
2017-11-20T15:28:18.609Z,41.06
2017-11-20T15:30:50.472Z,40.99
2017-11-20T15:33:23.614Z,40.96
2017-11-20T15:35:55.388Z,40.90
2017-11-20T15:38:35.467Z,40.87
2017-11-20T15:41:07.715Z,40.87
2017-11-20T15:43:39.331Z,40.88
2017-11-20T15:46:10.529Z,40.83
2017-11-20T15:48:41.992Z,40.90
2017-11-20T15:51:15.337Z,40.89
2017-11-20T15:53:46.458Z,40.87
2017-11-20T15:56:19.740Z,40.79
2017-11-20T15:58:59.251Z,40.84
2017-11-20T16:01:30.816Z,40.96
2017-11-20T16:04:03.957Z,41.00
2017-11-20T16:06:35.989Z,41.02
2017-11-20T16:09:07.839Z,41.07
2017-11-20T16:11:39.871Z,41.06
2017-11-20T16:14:11.365Z,41.00
2017-11-20T16:16:46.716Z,40.96
2017-11-20T16:19:24.924Z,40.94
2017-11-20T16:25:00.541Z,41.00
2017-11-20T16:27:36.709Z,40.92
2017-11-20T16:30:33.571Z,40.84
2017-11-20T16:33:31.488Z,40.96
2017-11-20T16:36:06.156Z,40.93
2017-11-20T16:38:40.476Z,41.06
2017-11-20T16:41:22.863Z,41.04
2017-11-20T16:43:56.919Z,41.08
2017-11-20T16:46:29.926Z,41.05
2017-11-20T16:49:02.604Z,41.11
2017-11-20T16:51:40.574Z,41.08
2017-11-20T16:54:21.795Z,41.13
2017-11-20T16:57:06.010Z,41.10
2017-11-20T16:59:40.926Z,41.10
2017-11-20T17:02:25.170Z,40.97
2017-11-20T17:04:58.926Z,40.96
2017-11-20T17:07:37.810Z,40.81
2017-11-20T17:10:10.196Z,40.80
2017-11-20T17:12:48.794Z,40.72
2017-11-20T17:15:36.015Z,40.69
2017-11-20T17:18:15.499Z,40.61
2017-11-20T17:25:03.588Z,40.50
2017-11-20T17:27:47.437Z,40.45
2017-11-20T17:30:47.173Z,40.45
2017-11-20T17:33:58.288Z,40.47
2017-11-20T17:36:39.293Z,40.57
2017-11-20T17:39:29.727Z,40.57
2017-11-20T17:42:03.996Z,40.55
2017-11-20T17:44:56.274Z,40.54
2017-11-20T17:53:18.047Z,40.58
2017-11-20T17:55:51.843Z,40.77
2017-11-20T17:58:23.532Z,40.78
2017-11-20T18:00:58.126Z,40.74
2017-11-20T18:03:32.367Z,40.78
2017-11-20T18:06:05.361Z,40.79
2017-11-20T18:11:37.033Z,40.75
2017-11-20T18:28:34.068Z,40.97
2017-11-20T18:31:23.108Z,40.96
2017-11-20T18:38:17.910Z,40.98
2017-11-20T18:40:56.306Z,40.97
2017-11-20T18:46:58.941Z,40.92
2017-11-20T18:49:53.763Z,40.84
2017-11-20T18:52:40.135Z,40.75
2017-11-20T18:55:50.954Z,40.64
2017-11-20T18:59:38.818Z,40.53
2017-11-20T19:04:28.380Z,40.43
2017-11-20T19:09:17.514Z,40.24
2017-11-20T19:11:57.530Z,40.19
2017-11-20T19:14:32.215Z,40.15
2017-11-20T19:17:07.806Z,40.15
2017-11-20T19:19:42.644Z,40.10
2017-11-20T19:22:18.845Z,40.13
2017-11-20T19:24:50.401Z,40.17
2017-11-20T19:27:22.270Z,40.21
2017-11-20T19:29:53.773Z,40.23
2017-11-20T19:32:26.600Z,40.25
2017-11-20T19:35:01.010Z,40.29
2017-11-20T19:37:32.340Z,40.38
2017-11-20T19:40:04.188Z,40.42
2017-11-20T19:42:35.670Z,40.44
2017-11-20T19:45:09.964Z,40.47
2017-11-20T19:47:41.556Z,40.51
2017-11-20T19:50:16.775Z,40.50
2017-11-20T19:52:49.228Z,40.54
2017-11-20T19:55:21.233Z,40.55
2017-11-20T19:57:53.273Z,40.52
2017-11-20T20:00:26.885Z,40.54
2017-11-20T20:02:58.427Z,40.55
2017-11-20T20:05:29.646Z,40.56
2017-11-20T20:08:01.231Z,40.56
2017-11-20T20:10:32.493Z,40.52
2017-11-20T20:13:03.603Z,40.58
2017-11-20T20:15:50.642Z,40.63
2017-11-20T20:18:22.511Z,40.69
2017-11-20T20:20:54.949Z,40.71
2017-11-20T20:23:27.646Z,40.72
2017-11-20T20:25:58.883Z,40.71
2017-11-20T20:28:30.264Z,40.71
2017-11-20T20:31:16.932Z,40.71
2017-11-20T20:34:00.474Z,40.71
2017-11-20T20:36:44.701Z,40.66
2017-11-20T20:39:47.088Z,40.61
2017-11-20T20:42:24.013Z,40.52
2017-11-20T20:45:02.665Z,40.41
2017-11-20T20:53:25.838Z,40.18
2017-11-20T20:58:58.813Z,40.08
2017-11-20T21:01:32.788Z,40.02
2017-11-20T21:04:05.865Z,39.96
2017-11-20T21:06:48.633Z,39.95
2017-11-20T21:09:20.683Z,39.93
2017-11-20T21:12:21.879Z,39.96
2017-11-20T21:14:53.348Z,40.03
2017-11-20T21:17:24.647Z,40.02
2017-11-20T21:19:56.651Z,40.04
2017-11-20T21:22:28.738Z,40.06
2017-11-20T21:25:01.235Z,40.04
2017-11-20T21:27:33.428Z,40.09
2017-11-20T21:30:05.069Z,40.08
2017-11-20T21:32:36.792Z,40.06
2017-11-20T21:35:10.026Z,40.07
2017-11-20T21:37:43.498Z,40.07
2017-11-20T21:40:18.309Z,40.08
2017-11-20T21:42:51.792Z,40.11
2017-11-20T21:45:28.728Z,40.10
2017-11-20T21:48:00.831Z,40.13
2017-11-20T21:50:32.778Z,40.15
2017-11-20T21:53:04.887Z,40.19
2017-11-20T21:55:42.416Z,40.20
2017-11-20T21:58:16.273Z,40.26
2017-11-20T22:00:51.005Z,40.29
2017-11-20T22:03:23.814Z,40.29
2017-11-20T22:05:55.318Z,40.30
2017-11-20T22:08:27.192Z,40.33
2017-11-20T22:18:06.388Z,40.47
2017-11-20T22:20:42.085Z,40.46
2017-11-20T22:23:16.370Z,40.43
2017-11-20T22:25:49.564Z,40.39
2017-11-20T22:28:22.618Z,40.36
2017-11-20T22:30:54.123Z,40.33
2017-11-20T22:33:29.517Z,40.29
2017-11-20T22:36:07.979Z,40.19
2017-11-20T22:38:49.359Z,40.09
2017-11-20T22:41:21.324Z,39.99
2017-11-20T22:43:53.067Z,39.90
2017-11-20T22:46:24.993Z,39.84
2017-11-20T22:48:56.739Z,39.80
2017-11-20T22:51:28.130Z,39.77
2017-11-20T22:53:59.496Z,39.73
2017-11-20T22:56:32.480Z,39.69
2017-11-20T22:59:03.905Z,39.69
2017-11-20T23:01:47.462Z,39.66
2017-11-20T23:04:21.626Z,39.65
2017-11-20T23:06:58.015Z,39.65
2017-11-20T23:09:51.226Z,39.66
2017-11-20T23:12:27.879Z,39.68
2017-11-20T23:15:02.562Z,39.69
2017-11-20T23:17:39.387Z,39.77
2017-11-20T23:20:43.636Z,39.82
2017-11-20T23:23:31.210Z,39.86
2017-11-20T23:26:05.256Z,39.93
2017-11-20T23:28:43.841Z,39.88
2017-11-20T23:31:20.370Z,39.92
2017-11-20T23:34:02.118Z,39.96
2017-11-20T23:36:37.703Z,39.99
2017-11-20T23:39:32.501Z,40.02
2017-11-20T23:45:27.093Z,40.02
2017-11-20T23:48:20.132Z,40.06
2017-11-20T23:51:00.072Z,40.07
2017-11-20T23:53:43.089Z,40.07
2017-11-20T23:56:23.620Z,40.09
2017-11-20T23:58:55.487Z,40.15
